Kezdőlap
METAR-TAF:

METAR-TAF

Repülőterek :

Krasznodar, Oroszország

földrajzi szélesség: 45-02N, földrajzi hosszúság: 039-09E, magasság: 33 m

Jelenlegi meteorológiai megfigyelések

A jelentés 30 perccel ezelõtt készült, 10:00 UTC
Kelet-délkeleti szél 12 kt
Hőmérséklet 17°C
Páratartalom 32%
Légköri nyomás 1026 hPa
Látótávolság 10 km, vagy több
Kevés felhő

METAR: URKK 231000Z 11006MPS 9999 FEW/// 17/00 Q1026 R05R/CLRD70 NOSIG RMK QFE767

Idő: 13:30 (10:30 UTC)

Előrejelzés

A jelentés 2 órával és 33 perccel ezelõtt készült, 07:57 UTC
Az előrejelzés 23-én 09 óra UTC és 24-én 09 óra UTC között érvényes
Keleti szél 6 kt széllökések: 16 kt
Látótávolság 10 km, vagy több
Szórványos felhőzet 3000 lábon
23-én 09 óra UTC és 23-én 15 óra UTC között ideiglenes
Kelet-délkeleti szél 14 kt széllökések: 25 kt

TAF: URKK 230757Z 2309/2409 08003G08MPS 9999 SCT030 TEMPO 2309/2315 12007G13MPS

Meteorológiai megfigyelések és előrejelzések több, mint 4000 repülőtéren (METAR és TAF jelentéseket).

A térképen piros és sárga pontok jelzik az elérhető meteorológiai állomásokat.

Mozgassa az egeret a pont fölött, hogy megjelenjen az állomás neve.

Azután kattintson az időjárási megfigyelések és előrejelzések megtekintéséhez.

A térkép megváltoztatása: kattintson a fekete keresztel jelölt zöld gombra ráközelítéshez, a vonallal jelölt zöld gombra távolításhoz, vagy a zöld nyilakra a szomszédos térképek eléréséhez.


METAR-TAF: